createdAt,value
2019-05-23T00:01:20.031Z,23.53
2019-05-23T00:03:51.641Z,23.73
2019-05-23T00:06:22.401Z,25.97
2019-05-23T00:08:52.471Z,22.50
2019-05-23T00:11:43.025Z,24.73
2019-05-23T00:14:24.951Z,28.53
2019-05-23T00:16:55.605Z,24.20
2019-05-23T00:19:24.909Z,27.37
2019-05-23T00:21:53.827Z,25.33
2019-05-23T00:24:24.033Z,20.73
2019-05-23T00:26:52.914Z,20.20
2019-05-23T00:29:22.291Z,22.80
2019-05-23T00:31:52.613Z,26.93
2019-05-23T00:34:21.375Z,27.23
2019-05-23T00:36:51.097Z,21.77
2019-05-23T00:39:19.862Z,24.43
2019-05-23T00:41:49.301Z,23.20
2019-05-23T00:44:17.971Z,22.17
2019-05-23T00:46:48.879Z,24.30
2019-05-23T00:49:18.319Z,26.80
2019-05-23T00:51:47.838Z,21.70
2019-05-23T00:54:19.246Z,21.33
2019-05-23T00:56:47.975Z,23.83
2019-05-23T00:59:26.456Z,24.67
2019-05-23T01:01:47.587Z,24.03
2019-05-23T01:04:16.810Z,25.93
2019-05-23T01:06:47.718Z,25.03
2019-05-23T01:09:16.852Z,24.67
2019-05-23T01:11:46.381Z,23.90
2019-05-23T01:14:15.113Z,24.10
2019-05-23T01:16:45.035Z,24.43
2019-05-23T01:19:14.289Z,20.37
2019-05-23T01:22:02.843Z,21.30
2019-05-23T01:24:36.394Z,22.90
2019-05-23T01:27:07.121Z,24.57
2019-05-23T01:29:49.630Z,25.67
2019-05-23T01:32:27.817Z,23.57
2019-05-23T01:34:57.749Z,22.50
2019-05-23T01:37:26.673Z,23.53
2019-05-23T01:39:55.724Z,23.70
2019-05-23T01:42:25.746Z,27.10
2019-05-23T01:44:54.989Z,24.23
2019-05-23T01:47:23.919Z,22.27
2019-05-23T01:49:53.089Z,28.53
2019-05-23T01:52:23.667Z,26.83
2019-05-23T01:54:52.074Z,22.33
2019-05-23T01:57:22.370Z,29.80
2019-05-23T02:00:08.128Z,24.33
2019-05-23T02:02:22.726Z,24.70
2019-05-23T02:04:51.962Z,24.43
2019-05-23T02:07:20.884Z,25.47
2019-05-23T02:09:49.585Z,23.90
2019-05-23T02:12:18.275Z,25.43
2019-05-23T02:14:48.367Z,30.73
2019-05-23T02:17:16.999Z,30.57
2019-05-23T02:19:46.550Z,28.77
2019-05-23T02:22:15.153Z,24.07
2019-05-23T02:24:44.288Z,27.60
2019-05-23T02:27:12.838Z,33.10
2019-05-23T02:29:42.896Z,29.77
2019-05-23T02:32:11.995Z,26.37
2019-05-23T02:34:41.280Z,28.27
2019-05-23T02:37:11.622Z,26.10
2019-05-23T02:39:48.374Z,26.00
2019-05-23T02:42:18.737Z,23.40
2019-05-23T02:44:47.872Z,25.73
2019-05-23T02:47:34.407Z,29.97
2019-05-23T02:50:04.974Z,26.83
2019-05-23T02:52:42.356Z,24.40
2019-05-23T02:55:17.001Z,24.87
2019-05-23T02:57:47.722Z,24.93
2019-05-23T03:00:52.348Z,29.13
2019-05-23T03:03:10.891Z,24.90
2019-05-23T03:05:40.868Z,32.63
2019-05-23T03:08:10.120Z,29.90
2019-05-23T03:10:58.133Z,26.67
2019-05-23T03:13:28.809Z,30.33
2019-05-23T03:15:58.452Z,28.60
2019-05-23T03:18:34.065Z,31.47
2019-05-23T03:21:01.656Z,33.47
2019-05-23T03:23:32.606Z,23.80
2019-05-23T03:26:10.531Z,31.00
2019-05-23T03:28:39.415Z,29.53
2019-05-23T03:31:28.540Z,32.37
2019-05-23T03:33:46.621Z,33.73
2019-05-23T03:36:15.887Z,35.13
2019-05-23T03:38:44.750Z,28.50
2019-05-23T03:41:14.287Z,29.00
2019-05-23T03:43:44.293Z,32.07
2019-05-23T03:46:14.347Z,32.47
2019-05-23T03:48:42.741Z,30.87
2019-05-23T03:51:12.121Z,28.80
2019-05-23T03:53:42.262Z,28.10
2019-05-23T03:56:11.097Z,27.67
2019-05-23T03:58:42.038Z,32.10
2019-05-23T04:01:12.428Z,28.13
2019-05-23T04:03:42.674Z,25.17
2019-05-23T04:06:12.035Z,27.10
2019-05-23T04:08:40.495Z,28.47
2019-05-23T04:11:08.975Z,27.63
2019-05-23T04:13:37.366Z,31.57
2019-05-23T04:16:06.052Z,27.20
2019-05-23T04:18:34.631Z,31.00
2019-05-23T04:21:03.482Z,34.80
2019-05-23T04:23:32.148Z,24.40
2019-05-23T04:26:00.545Z,25.83
2019-05-23T04:28:29.311Z,28.60
2019-05-23T04:30:58.357Z,24.73
2019-05-23T04:33:26.901Z,28.70
2019-05-23T04:35:56.134Z,27.20
2019-05-23T04:38:24.705Z,24.60
2019-05-23T04:40:53.114Z,24.83
2019-05-23T04:43:21.657Z,25.77
2019-05-23T04:45:50.064Z,23.43
2019-05-23T04:48:18.654Z,25.50
2019-05-23T04:50:47.496Z,25.43
2019-05-23T04:53:16.117Z,25.73
2019-05-23T04:55:45.675Z,29.13
2019-05-23T04:58:14.821Z,25.03
2019-05-23T05:00:43.571Z,28.10
2019-05-23T05:03:17.020Z,26.30
2019-05-23T05:05:43.740Z,25.57
2019-05-23T05:08:12.370Z,24.77
2019-05-23T05:10:42.787Z,23.40
2019-05-23T05:13:11.841Z,27.57
2019-05-23T05:15:40.441Z,28.97
2019-05-23T05:18:08.829Z,26.77
2019-05-23T05:20:37.367Z,25.40
2019-05-23T05:23:05.827Z,28.47
2019-05-23T05:25:34.507Z,26.30
2019-05-23T05:28:03.403Z,40.23
2019-05-23T05:30:32.174Z,24.63
2019-05-23T05:33:01.131Z,29.27
2019-05-23T05:35:31.977Z,28.93
2019-05-23T05:38:00.936Z,30.00
2019-05-23T05:40:30.024Z,36.23
2019-05-23T05:42:59.442Z,29.33
2019-05-23T05:45:28.078Z,25.10
2019-05-23T05:47:56.779Z,26.93
2019-05-23T05:50:25.943Z,26.33
2019-05-23T05:52:54.699Z,27.90
2019-05-23T05:55:23.359Z,23.10
2019-05-23T05:57:51.858Z,31.50
2019-05-23T06:00:28.043Z,24.50
2019-05-23T06:03:04.091Z,30.73
2019-05-23T06:05:35.596Z,24.97
2019-05-23T06:08:05.517Z,26.43
2019-05-23T06:10:33.992Z,25.00
2019-05-23T06:13:02.616Z,23.83
2019-05-23T06:15:32.862Z,20.47
2019-05-23T06:18:01.936Z,19.10
2019-05-23T06:20:30.889Z,22.37
2019-05-23T06:23:00.251Z,19.10
2019-05-23T06:25:28.838Z,24.63
2019-05-23T06:27:57.542Z,24.23
2019-05-23T06:30:25.948Z,23.23
2019-05-23T06:32:54.414Z,22.90
2019-05-23T06:35:23.260Z,26.67
2019-05-23T06:37:51.690Z,21.47
2019-05-23T06:40:20.481Z,23.57
2019-05-23T06:42:50.849Z,26.60
2019-05-23T06:45:19.521Z,23.80
2019-05-23T06:47:48.276Z,23.67
2019-05-23T06:50:18.497Z,22.37
2019-05-23T06:52:47.178Z,29.07
2019-05-23T06:55:15.717Z,19.20
2019-05-23T06:57:44.127Z,22.07
2019-05-23T07:00:14.945Z,22.57
2019-05-23T07:02:44.034Z,25.20
2019-05-23T07:05:12.890Z,25.83
2019-05-23T07:07:42.548Z,22.97
2019-05-23T07:10:11.878Z,23.13
2019-05-23T07:12:40.463Z,24.23
2019-05-23T07:15:09.809Z,25.63
2019-05-23T07:17:39.312Z,29.77
2019-05-23T07:20:09.115Z,23.13
2019-05-23T07:22:37.527Z,25.47
2019-05-23T07:25:06.892Z,21.57
2019-05-23T07:27:35.673Z,26.00
2019-05-23T07:30:12.735Z,23.77
2019-05-23T07:32:41.175Z,27.20
2019-05-23T07:35:10.007Z,25.00
2019-05-23T07:37:38.502Z,23.80
2019-05-23T07:40:07.139Z,26.87
2019-05-23T07:42:35.548Z,23.17
2019-05-23T07:45:07.390Z,27.23
2019-05-23T07:47:39.895Z,29.80
2019-05-23T07:50:06.681Z,24.27
2019-05-23T07:52:35.084Z,24.43
2019-05-23T07:55:05.882Z,23.33
2019-05-23T07:57:34.479Z,22.73
2019-05-23T08:00:04.603Z,19.57
2019-05-23T08:02:37.086Z,25.57
2019-05-23T08:05:08.124Z,22.07
2019-05-23T08:07:37.958Z,22.50
2019-05-23T08:10:08.275Z,27.70
2019-05-23T08:12:37.411Z,20.43
2019-05-23T08:15:06.542Z,20.87
2019-05-23T08:17:35.266Z,20.87
2019-05-23T08:20:04.610Z,20.00
2019-05-23T08:22:33.091Z,22.63
2019-05-23T08:25:01.513Z,16.73
2019-05-23T08:27:30.254Z,15.60
2019-05-23T08:30:01.723Z,14.63
2019-05-23T08:32:28.875Z,14.13
2019-05-23T08:34:57.534Z,13.33
2019-05-23T08:37:25.993Z,9.73
2019-05-23T08:39:54.689Z,9.60
2019-05-23T08:42:23.093Z,7.40
2019-05-23T08:44:51.772Z,8.00
2019-05-23T08:47:21.105Z,10.97
2019-05-23T08:49:49.649Z,9.70
2019-05-23T08:52:18.047Z,9.57
2019-05-23T08:54:48.289Z,6.67
2019-05-23T08:57:16.689Z,8.87
2019-05-23T08:59:45.972Z,6.10
2019-05-23T09:02:14.436Z,6.70
2019-05-23T09:05:02.324Z,7.10
2019-05-23T09:07:13.734Z,7.00
2019-05-23T09:09:42.996Z,8.27
2019-05-23T09:12:11.409Z,6.70
2019-05-23T09:14:39.893Z,6.87
2019-05-23T09:17:09.581Z,8.50
2019-05-23T09:19:38.244Z,7.67
2019-05-23T09:22:06.820Z,5.30
2019-05-23T09:24:35.363Z,9.57
2019-05-23T09:27:04.590Z,6.63
2019-05-23T09:29:33.000Z,6.87
2019-05-23T09:32:01.664Z,7.40
2019-05-23T09:34:30.415Z,4.93
2019-05-23T09:37:00.489Z,5.63
2019-05-23T09:39:29.813Z,6.83
2019-05-23T09:41:58.214Z,5.97
2019-05-23T09:44:26.694Z,9.40
2019-05-23T09:46:55.071Z,7.07
2019-05-23T09:49:24.487Z,8.10
2019-05-23T09:51:57.503Z,6.23
2019-05-23T09:54:23.406Z,6.03
2019-05-23T09:56:52.081Z,7.40
2019-05-23T09:59:20.481Z,6.77
2019-05-23T10:01:49.318Z,5.50
2019-05-23T10:04:17.727Z,7.53
2019-05-23T10:06:46.501Z,6.87
2019-05-23T10:09:14.966Z,5.27
2019-05-23T10:11:43.669Z,5.00
2019-05-23T10:14:14.010Z,5.40
2019-05-23T10:16:42.403Z,7.10
2019-05-23T10:19:10.873Z,5.50
2019-05-23T10:21:39.323Z,6.00
2019-05-23T10:24:08.974Z,7.50
2019-05-23T10:26:37.359Z,6.40
2019-05-23T10:29:05.836Z,6.67
2019-05-23T10:31:34.320Z,7.47
2019-05-23T10:34:02.793Z,7.23
2019-05-23T10:36:31.188Z,6.30
2019-05-23T10:38:59.688Z,7.13
2019-05-23T10:41:28.133Z,6.57
2019-05-23T10:43:56.950Z,6.60
2019-05-23T10:46:25.376Z,6.40
2019-05-23T10:48:53.926Z,5.47
2019-05-23T10:51:22.339Z,5.53
2019-05-23T10:53:50.739Z,6.37
2019-05-23T10:56:20.654Z,5.00
2019-05-23T10:58:49.480Z,3.97
2019-05-23T11:01:18.656Z,4.73
2019-05-23T11:03:47.194Z,6.53
2019-05-23T11:06:17.235Z,7.23
2019-05-23T11:08:46.154Z,5.50
2019-05-23T11:11:15.184Z,5.63
2019-05-23T11:13:44.377Z,4.10
2019-05-23T11:16:13.025Z,5.10
2019-05-23T11:18:41.834Z,3.37
2019-05-23T11:21:10.417Z,3.07
2019-05-23T11:23:43.304Z,3.83
2019-05-23T11:26:12.134Z,5.43
2019-05-23T11:28:40.783Z,3.70
2019-05-23T11:31:10.518Z,5.03
2019-05-23T11:33:39.063Z,4.83
2019-05-23T11:36:07.461Z,6.73
2019-05-23T11:38:35.917Z,3.00
2019-05-23T11:41:04.492Z,3.10
2019-05-23T11:43:32.889Z,3.50
2019-05-23T11:46:03.192Z,2.80
2019-05-23T11:48:32.596Z,8.90
2019-05-23T11:51:01.420Z,2.97
2019-05-23T11:53:31.086Z,4.47
2019-05-23T11:55:59.499Z,3.80
2019-05-23T11:58:32.146Z,3.90
2019-05-23T12:01:02.880Z,4.70
2019-05-23T12:03:31.497Z,3.77
2019-05-23T12:05:59.970Z,6.33
2019-05-23T12:08:28.505Z,4.90
2019-05-23T12:10:57.248Z,6.20
2019-05-23T12:13:25.858Z,4.37
2019-05-23T12:15:54.331Z,3.20
2019-05-23T12:18:23.055Z,3.27
2019-05-23T12:20:51.468Z,3.47
2019-05-23T12:23:19.866Z,5.63
2019-05-23T12:25:48.650Z,3.90
2019-05-23T12:28:17.680Z,3.57
2019-05-23T12:30:46.363Z,3.20
2019-05-23T12:33:14.777Z,4.60
2019-05-23T12:35:43.197Z,4.10
2019-05-23T12:38:12.071Z,3.77
2019-05-23T12:40:40.553Z,3.83
2019-05-23T12:43:08.943Z,4.70
2019-05-23T12:45:37.348Z,4.07
2019-05-23T12:48:19.451Z,3.80
2019-05-23T12:51:01.657Z,3.73
2019-05-23T12:53:30.125Z,5.70
2019-05-23T12:55:58.608Z,4.40
2019-05-23T12:58:27.530Z,4.30
2019-05-23T13:00:57.667Z,4.90
2019-05-23T13:03:26.317Z,4.37
2019-05-23T13:05:55.026Z,4.93
2019-05-23T13:08:23.958Z,3.87
2019-05-23T13:10:52.502Z,2.90
2019-05-23T13:13:20.895Z,3.30
2019-05-23T13:15:49.363Z,3.53
2019-05-23T13:18:18.691Z,3.67
2019-05-23T13:20:47.624Z,6.23
2019-05-23T13:23:20.751Z,3.20
2019-05-23T13:25:47.014Z,3.03
2019-05-23T13:28:15.517Z,3.40
2019-05-23T13:30:43.966Z,7.10
2019-05-23T13:33:12.845Z,3.10
2019-05-23T13:35:41.974Z,2.67
2019-05-23T13:38:10.469Z,3.73
2019-05-23T13:40:38.914Z,5.30
2019-05-23T13:43:09.008Z,6.90
2019-05-23T13:45:37.593Z,2.93
2019-05-23T13:48:06.076Z,3.13
2019-05-23T13:50:35.393Z,5.20
2019-05-23T13:53:04.639Z,3.40
2019-05-23T13:55:33.498Z,5.03
2019-05-23T13:58:01.911Z,3.10
2019-05-23T14:00:31.955Z,3.13
2019-05-23T14:03:00.667Z,3.23
2019-05-23T14:05:29.207Z,3.20
2019-05-23T14:08:11.637Z,3.17
2019-05-23T14:10:28.405Z,2.90
2019-05-23T14:12:56.853Z,4.10
2019-05-23T14:15:43.163Z,2.60
2019-05-23T14:18:13.279Z,4.63
2019-05-23T14:20:42.112Z,2.97
2019-05-23T14:23:17.836Z,3.27
2019-05-23T14:25:46.556Z,2.70
2019-05-23T14:28:15.599Z,4.57
2019-05-23T14:30:57.613Z,3.90
2019-05-23T14:33:28.241Z,3.67
2019-05-23T14:36:01.183Z,5.87
2019-05-23T14:38:33.794Z,3.00
2019-05-23T14:41:02.250Z,3.27
2019-05-23T14:43:30.653Z,3.47
2019-05-23T14:46:15.555Z,2.60
2019-05-23T14:48:51.906Z,2.80
2019-05-23T14:51:38.043Z,4.33
2019-05-23T14:54:08.164Z,3.50
2019-05-23T14:56:38.274Z,2.47
2019-05-23T14:59:06.761Z,4.30
2019-05-23T15:01:35.688Z,2.57
2019-05-23T15:04:04.534Z,3.57
2019-05-23T15:06:33.339Z,2.80
2019-05-23T15:09:01.743Z,4.80
2019-05-23T15:11:30.133Z,3.20
2019-05-23T15:13:58.913Z,2.87
2019-05-23T15:16:27.606Z,2.83
2019-05-23T15:18:56.147Z,4.33
2019-05-23T15:21:24.529Z,2.33
2019-05-23T15:23:53.066Z,3.23
2019-05-23T15:26:23.703Z,2.50
2019-05-23T15:28:51.666Z,4.40
2019-05-23T15:31:20.413Z,3.10
2019-05-23T15:33:48.905Z,5.80
2019-05-23T15:36:17.344Z,3.90
2019-05-23T15:38:45.945Z,3.97
2019-05-23T15:41:14.445Z,3.17
2019-05-23T15:43:42.860Z,3.83
2019-05-23T15:46:11.251Z,5.23
2019-05-23T15:48:39.841Z,3.63
2019-05-23T15:51:09.303Z,2.60
2019-05-23T15:53:56.247Z,4.40
2019-05-23T15:56:28.471Z,2.80
2019-05-23T15:59:00.629Z,4.17
2019-05-23T16:01:36.692Z,2.50
2019-05-23T16:04:07.343Z,3.70
2019-05-23T16:06:36.323Z,4.87
2019-05-23T16:09:25.411Z,4.63
2019-05-23T16:11:39.769Z,3.80
2019-05-23T16:14:08.723Z,3.13
2019-05-23T16:16:37.471Z,2.50
2019-05-23T16:19:06.324Z,3.90
2019-05-23T16:21:34.709Z,4.43
2019-05-23T16:24:04.862Z,4.30
2019-05-23T16:26:33.691Z,2.37
2019-05-23T16:29:02.173Z,2.90
2019-05-23T16:31:30.679Z,2.53
2019-05-23T16:33:59.137Z,5.83
2019-05-23T16:36:27.831Z,2.30
2019-05-23T16:38:56.221Z,2.57
2019-05-23T16:41:24.855Z,2.40
2019-05-23T16:43:53.258Z,4.83
2019-05-23T16:46:21.677Z,2.00
2019-05-23T16:48:50.146Z,2.37
2019-05-23T16:51:18.924Z,2.57
2019-05-23T16:53:47.558Z,4.43
2019-05-23T16:56:20.310Z,3.03
2019-05-23T16:59:08.739Z,2.47
2019-05-23T17:01:53.172Z,3.93
2019-05-23T17:04:10.844Z,2.80
2019-05-23T17:06:57.627Z,2.43
2019-05-23T17:09:31.698Z,2.57
2019-05-23T17:12:02.574Z,2.80
2019-05-23T17:14:35.681Z,3.87
2019-05-23T17:17:43.119Z,2.67
2019-05-23T17:19:56.641Z,2.37
2019-05-23T17:22:43.029Z,3.13
2019-05-23T17:25:28.494Z,2.60
2019-05-23T17:28:10.549Z,3.20
2019-05-23T17:30:49.791Z,3.10
2019-05-23T17:33:18.858Z,2.30
2019-05-23T17:35:47.634Z,2.60
2019-05-23T17:38:16.075Z,3.07
2019-05-23T17:40:44.668Z,2.80
2019-05-23T17:43:13.131Z,2.80
2019-05-23T17:45:41.575Z,3.20
2019-05-23T17:48:10.910Z,2.83
2019-05-23T17:50:39.310Z,3.10
2019-05-23T17:53:07.739Z,2.93
2019-05-23T17:55:36.203Z,3.57
2019-05-23T17:58:04.669Z,4.30
2019-05-23T18:00:37.450Z,4.77
2019-05-23T18:03:06.166Z,3.40
2019-05-23T18:05:35.002Z,3.23
2019-05-23T18:08:04.993Z,3.03
2019-05-23T18:10:44.760Z,2.77
2019-05-23T18:13:04.837Z,3.87
2019-05-23T18:15:33.834Z,2.77
2019-05-23T18:18:02.257Z,3.70
2019-05-23T18:20:31.500Z,3.70
2019-05-23T18:22:59.969Z,3.20
2019-05-23T18:25:29.873Z,3.40
2019-05-23T18:27:58.786Z,4.10
2019-05-23T18:30:31.710Z,3.10
2019-05-23T18:33:01.756Z,9.27
2019-05-23T18:35:30.890Z,2.90
2019-05-23T18:38:00.119Z,4.60
2019-05-23T18:40:28.810Z,3.07
2019-05-23T18:42:57.246Z,7.47
2019-05-23T18:45:25.924Z,4.27
2019-05-23T18:47:54.387Z,3.20
2019-05-23T18:50:22.859Z,2.97
2019-05-23T18:52:52.123Z,3.60
2019-05-23T18:55:21.083Z,7.17
2019-05-23T18:57:49.866Z,3.20
2019-05-23T19:00:20.027Z,7.80
2019-05-23T19:02:48.645Z,3.13
2019-05-23T19:05:17.179Z,4.10
2019-05-23T19:07:45.761Z,3.67
2019-05-23T19:10:15.576Z,4.80
2019-05-23T19:12:44.222Z,8.23
2019-05-23T19:15:13.544Z,4.40
2019-05-23T19:17:42.005Z,5.87
2019-05-23T19:20:11.233Z,4.30
2019-05-23T19:22:39.647Z,4.40
2019-05-23T19:25:10.147Z,3.93
2019-05-23T19:27:38.793Z,5.37
2019-05-23T19:30:08.181Z,8.20
2019-05-23T19:32:36.735Z,6.67
2019-05-23T19:35:07.707Z,4.77
2019-05-23T19:37:36.380Z,5.23
2019-05-23T19:40:08.064Z,5.83
2019-05-23T19:42:36.473Z,7.27
2019-05-23T19:45:06.870Z,5.40
2019-05-23T19:47:35.361Z,4.77
2019-05-23T19:50:05.278Z,5.90
2019-05-23T19:52:33.754Z,6.97
2019-05-23T19:55:02.228Z,4.40
2019-05-23T19:57:32.019Z,5.40
2019-05-23T20:00:00.426Z,7.80
2019-05-23T20:02:36.306Z,5.60
2019-05-23T20:05:07.675Z,4.77
2019-05-23T20:07:36.160Z,4.80
2019-05-23T20:10:06.182Z,4.93
2019-05-23T20:12:35.214Z,6.23
2019-05-23T20:15:04.944Z,5.90
2019-05-23T20:17:33.381Z,6.60
2019-05-23T20:20:01.837Z,4.43
2019-05-23T20:22:30.682Z,5.90
2019-05-23T20:24:59.080Z,5.40
2019-05-23T20:27:27.483Z,4.33
2019-05-23T20:29:56.795Z,4.70
2019-05-23T20:32:25.229Z,10.30
2019-05-23T20:34:53.766Z,4.93
2019-05-23T20:37:22.522Z,9.30
2019-05-23T20:39:50.993Z,6.00
2019-05-23T20:42:19.456Z,5.97
2019-05-23T20:44:47.867Z,5.10
2019-05-23T20:47:16.253Z,7.53
2019-05-23T20:49:44.670Z,6.37
2019-05-23T20:52:13.136Z,5.40
2019-05-23T20:54:41.610Z,6.10
2019-05-23T20:57:10.936Z,6.80
2019-05-23T20:59:39.426Z,5.20
2019-05-23T21:02:07.999Z,6.30
2019-05-23T21:04:36.463Z,5.67
2019-05-23T21:07:04.941Z,5.50
2019-05-23T21:09:33.345Z,6.43
2019-05-23T21:12:01.732Z,5.40
2019-05-23T21:14:30.143Z,6.13
2019-05-23T21:16:58.536Z,4.60
2019-05-23T21:19:27.029Z,10.53
2019-05-23T21:21:55.423Z,4.97
2019-05-23T21:24:23.843Z,7.20
2019-05-23T21:26:52.253Z,7.57
2019-05-23T21:29:20.722Z,5.10
2019-05-23T21:31:49.108Z,5.37
2019-05-23T21:34:17.523Z,10.10
2019-05-23T21:36:45.930Z,5.00
2019-05-23T21:39:15.398Z,5.53
2019-05-23T21:41:43.786Z,4.83
2019-05-23T21:44:12.199Z,4.60
2019-05-23T21:46:40.629Z,7.03
2019-05-23T21:49:09.081Z,5.00
2019-05-23T21:51:37.479Z,5.10
2019-05-23T21:54:05.930Z,5.17
2019-05-23T21:56:34.329Z,7.37
2019-05-23T21:59:02.723Z,4.97
2019-05-23T22:01:39.141Z,5.20
2019-05-23T22:04:11.858Z,8.50
2019-05-23T22:06:41.909Z,5.40
2019-05-23T22:09:16.869Z,5.67
2019-05-23T22:11:45.254Z,10.83
2019-05-23T22:14:13.691Z,5.43
2019-05-23T22:16:42.159Z,7.40
2019-05-23T22:19:12.274Z,4.77
2019-05-23T22:21:40.678Z,5.60
2019-05-23T22:24:09.555Z,5.23
2019-05-23T22:26:38.239Z,4.50
2019-05-23T22:29:06.770Z,4.97
2019-05-23T22:31:35.926Z,7.20
2019-05-23T22:34:12.485Z,6.40
2019-05-23T22:36:40.893Z,9.33
2019-05-23T22:39:09.280Z,5.27
2019-05-23T22:41:37.848Z,4.57
2019-05-23T22:44:07.550Z,7.00
2019-05-23T22:46:36.457Z,5.80
2019-05-23T22:49:04.846Z,5.83
2019-05-23T22:51:33.255Z,10.17
2019-05-23T22:54:01.720Z,5.97
2019-05-23T22:56:30.115Z,6.20
2019-05-23T22:58:58.583Z,4.93
2019-05-23T23:01:28.774Z,7.07
2019-05-23T23:03:57.163Z,4.80
2019-05-23T23:06:25.636Z,5.93
2019-05-23T23:08:54.164Z,6.50
2019-05-23T23:11:22.565Z,4.90
2019-05-23T23:13:50.978Z,6.47
2019-05-23T23:16:19.388Z,4.57
2019-05-23T23:18:47.779Z,5.60
2019-05-23T23:21:16.264Z,4.40
2019-05-23T23:23:44.673Z,4.53
2019-05-23T23:26:13.092Z,5.30
2019-05-23T23:28:41.521Z,4.67
2019-05-23T23:31:09.953Z,5.30
2019-05-23T23:33:38.365Z,5.20
2019-05-23T23:36:06.794Z,10.83
2019-05-23T23:38:35.189Z,5.30
2019-05-23T23:41:03.655Z,6.33
2019-05-23T23:43:32.059Z,5.23
2019-05-23T23:46:18.566Z,6.00
2019-05-23T23:49:05.122Z,6.37
2019-05-23T23:51:51.802Z,8.13
2019-05-23T23:54:38.534Z,8.20
2019-05-23T23:57:24.914Z,6.67
2019-05-23T23:59:52.632Z,5.00
